createdAt,value
2023-04-17T00:01:34.222Z,98537.06
2023-04-17T00:05:36.309Z,98543.22
2023-04-17T00:09:38.437Z,98549.22
2023-04-17T00:13:40.476Z,98536.84
2023-04-17T00:17:42.570Z,98547.31
2023-04-17T00:21:44.742Z,98546.56
2023-04-17T00:25:46.770Z,98544.81
2023-04-17T00:29:48.837Z,98547.53
2023-04-17T00:33:50.892Z,98537.06
2023-04-17T00:37:52.923Z,98538.75
2023-04-17T00:41:54.969Z,98537.81
2023-04-17T00:45:58.018Z,98537.59
2023-04-17T00:50:00.321Z,98536.69
2023-04-17T00:54:02.934Z,98538.41
2023-04-17T00:58:05.982Z,98532.22
2023-04-17T01:02:08.129Z,98532.31
2023-04-17T01:06:11.692Z,98532.38
2023-04-17T01:10:16.827Z,98537.63
2023-04-17T01:14:18.874Z,98528.97
2023-04-17T01:18:21.106Z,98532.31
2023-04-17T01:22:23.130Z,98532.22
2023-04-17T01:26:31.609Z,98528.72
2023-04-17T01:30:33.970Z,98528.75
2023-04-17T01:34:39.039Z,98534.06
2023-04-17T01:38:41.194Z,98528.16
2023-04-17T01:42:43.327Z,98531.75
2023-04-17T01:46:45.632Z,98524.88
2023-04-17T01:50:47.707Z,98529.25
2023-04-17T01:54:49.928Z,98523.16
2023-04-17T01:58:52.078Z,98525.63
2023-04-17T02:02:54.777Z,98532.59
2023-04-17T02:06:58.587Z,98532.50
2023-04-17T02:11:00.609Z,98526.47
2023-04-17T02:15:02.829Z,98525.63
2023-04-17T02:19:04.875Z,98525.78
2023-04-17T02:23:07.097Z,98527.63
2023-04-17T02:27:09.233Z,98526.66
2023-04-17T02:31:12.531Z,98523.31
2023-04-17T02:35:14.638Z,98527.03
2023-04-17T02:39:17.112Z,98520.09
2023-04-17T02:43:20.215Z,98526.25
2023-04-17T02:47:22.607Z,98524.53
2023-04-17T02:51:24.705Z,98524.53
2023-04-17T02:55:27.088Z,98526.25
2023-04-17T02:59:29.214Z,98526.25
2023-04-17T03:03:34.811Z,98528.78
2023-04-17T03:07:41.489Z,98524.19
2023-04-17T03:11:44.275Z,98519.81
2023-04-17T03:15:46.331Z,98521.56
2023-04-17T03:19:48.463Z,98526.88
2023-04-17T03:23:50.795Z,98531.34
2023-04-17T03:27:56.391Z,98528.00
2023-04-17T03:32:04.285Z,98534.22
2023-04-17T03:36:08.475Z,98536.06
2023-04-17T03:40:11.786Z,98537.84
2023-04-17T03:44:14.018Z,98533.53
2023-04-17T03:48:16.110Z,98533.44
2023-04-17T03:52:20.726Z,98528.13
2023-04-17T03:56:28.710Z,98530.75
2023-04-17T04:00:31.802Z,98531.75
2023-04-17T04:04:38.622Z,98529.28
2023-04-17T04:08:46.020Z,98535.59
2023-04-17T04:12:48.118Z,98539.25
2023-04-17T04:16:51.384Z,98540.25
2023-04-17T04:20:53.616Z,98537.72
2023-04-17T04:25:06.932Z,98549.88
2023-04-17T04:29:25.565Z,98557.59
2023-04-17T04:33:37.953Z,98554.06
2023-04-17T04:37:42.877Z,98556.75
2023-04-17T04:41:46.207Z,98552.56
2023-04-17T04:45:49.344Z,98557.94
2023-04-17T04:49:52.156Z,98552.78
2023-04-17T04:53:56.426Z,98559.03
2023-04-17T04:57:59.508Z,98559.25
2023-04-17T05:02:02.633Z,98564.63
2023-04-17T05:06:05.869Z,98559.81
2023-04-17T05:10:15.573Z,98566.00
2023-04-17T05:14:24.119Z,98569.41
2023-04-17T05:18:26.467Z,98576.38
2023-04-17T05:22:29.860Z,98572.00
2023-04-17T05:26:47.004Z,98566.81
2023-04-17T05:30:49.093Z,98568.66
2023-04-17T05:34:58.166Z,98570.59
2023-04-17T05:39:02.696Z,98579.50
2023-04-17T05:43:08.168Z,98583.78
2023-04-17T05:47:10.947Z,98581.81
2023-04-17T05:51:13.031Z,98586.91
2023-04-17T05:55:15.528Z,98589.41
2023-04-17T05:59:18.433Z,98591.06
2023-04-17T06:03:21.264Z,98587.16
2023-04-17T06:07:28.739Z,98592.72
2023-04-17T06:11:30.882Z,98599.38
2023-04-17T06:15:33.574Z,98604.72
2023-04-17T06:19:35.854Z,98615.22
2023-04-17T06:23:37.888Z,98604.59
2023-04-17T06:27:40.103Z,98609.63
2023-04-17T06:31:42.837Z,98613.84
2023-04-17T06:35:45.125Z,98611.88
2023-04-17T06:39:54.990Z,98610.19
2023-04-17T06:43:57.641Z,98625.94
2023-04-17T06:48:02.296Z,98618.81
2023-04-17T06:52:05.198Z,98616.03
2023-04-17T06:56:07.487Z,98630.63
2023-04-17T07:00:10.544Z,98623.31
2023-04-17T07:04:12.925Z,98626.78
2023-04-17T07:08:15.924Z,98616.47
2023-04-17T07:12:18.207Z,98625.91
2023-04-17T07:16:22.916Z,98632.06
2023-04-17T07:20:25.048Z,98634.13
2023-04-17T07:24:27.497Z,98640.22
2023-04-17T07:28:29.545Z,98643.78
2023-04-17T07:32:32.196Z,98645.59
2023-04-17T07:36:34.367Z,98640.91
2023-04-17T07:40:36.491Z,98650.25
2023-04-17T07:44:39.180Z,98647.78
2023-04-17T07:48:41.237Z,98654.66
2023-04-17T07:52:43.391Z,98650.31
2023-04-17T07:56:49.497Z,98655.56
2023-04-17T08:00:52.141Z,98666.31
2023-04-17T08:04:54.420Z,98665.53
2023-04-17T08:08:56.594Z,98669.94
2023-04-17T08:12:58.844Z,98665.78
2023-04-17T08:17:01.060Z,98677.78
2023-04-17T08:21:04.238Z,98677.28
2023-04-17T08:25:09.306Z,98675.13
2023-04-17T08:29:11.509Z,98675.66
2023-04-17T08:33:16.755Z,98675.13
2023-04-17T08:37:18.826Z,98682.38
2023-04-17T08:41:24.118Z,98677.31
2023-04-17T08:45:26.303Z,98681.38
2023-04-17T08:49:29.344Z,98685.66
2023-04-17T08:53:32.002Z,98681.25
2023-04-17T08:57:34.034Z,98679.66
2023-04-17T09:01:37.658Z,98686.09
2023-04-17T09:05:48.457Z,98685.19
2023-04-17T09:09:55.631Z,98693.59
2023-04-17T09:13:57.789Z,98691.19
2023-04-17T09:17:59.950Z,98699.00
2023-04-17T09:22:18.728Z,98696.03
2023-04-17T09:26:24.195Z,98699.38
2023-04-17T09:30:27.082Z,98696.97
2023-04-17T09:34:29.142Z,98701.38
2023-04-17T09:38:38.313Z,98698.69
2023-04-17T09:43:04.643Z,98703.66
2023-04-17T09:47:08.235Z,98700.44
2023-04-17T09:51:10.496Z,98706.84
2023-04-17T09:55:13.893Z,98697.75
2023-04-17T09:59:16.611Z,98699.41
2023-04-17T10:03:19.088Z,98710.06
2023-04-17T10:07:21.399Z,98710.53
2023-04-17T10:11:25.776Z,98708.69
2023-04-17T10:15:28.759Z,98707.03
2023-04-17T10:19:36.561Z,98704.78
2023-04-17T10:23:40.035Z,98702.91
2023-04-17T10:27:42.526Z,98701.09
2023-04-17T10:32:14.148Z,98700.06
2023-04-17T10:36:37.850Z,98685.69
2023-04-17T10:40:43.331Z,98696.06
2023-04-17T10:44:46.490Z,98695.34
2023-04-17T10:48:52.956Z,98693.44
2023-04-17T10:52:55.196Z,98694.78
2023-04-17T10:56:58.413Z,98685.38
2023-04-17T11:01:08.620Z,98678.91
2023-04-17T11:05:11.315Z,98686.56
2023-04-17T11:09:14.700Z,98686.47
2023-04-17T11:13:16.803Z,98675.72
2023-04-17T11:17:21.354Z,98678.59
2023-04-17T11:21:23.552Z,98671.56
2023-04-17T11:25:27.703Z,98664.53
2023-04-17T11:29:29.877Z,98662.91
2023-04-17T11:33:36.826Z,98663.78
2023-04-17T11:38:34.009Z,98659.88
2023-04-17T11:42:36.067Z,98667.03
2023-04-17T11:46:38.186Z,98679.56
2023-04-17T11:50:42.746Z,98672.97
2023-04-17T11:54:44.778Z,98683.41
2023-04-17T11:58:51.694Z,98672.91
2023-04-17T12:02:53.813Z,98677.13
2023-04-17T12:06:57.992Z,98674.03
2023-04-17T12:11:01.665Z,98666.97
2023-04-17T12:15:03.896Z,98678.97
2023-04-17T12:19:06.191Z,98669.81
2023-04-17T12:23:08.573Z,98675.25
2023-04-17T12:27:10.916Z,98681.53
2023-04-17T12:31:13.046Z,98668.41
2023-04-17T12:35:16.270Z,98690.41
2023-04-17T12:39:18.864Z,98683.09
2023-04-17T12:43:21.105Z,98683.13
2023-04-17T12:47:23.259Z,98680.72
2023-04-17T12:51:28.376Z,98686.97
2023-04-17T12:55:30.788Z,98690.72
2023-04-17T12:59:32.790Z,98681.84
2023-04-17T13:03:36.149Z,98684.38
2023-04-17T13:07:38.392Z,98683.03
2023-04-17T13:11:40.526Z,98680.19
2023-04-17T13:15:45.792Z,98678.09
2023-04-17T13:19:47.820Z,98673.78
2023-04-17T13:23:49.811Z,98676.03
2023-04-17T13:27:51.876Z,98671.06
2023-04-17T13:31:53.944Z,98675.09
2023-04-17T13:35:55.973Z,98673.78
2023-04-17T13:39:59.618Z,98670.47
2023-04-17T13:44:01.623Z,98660.72
2023-04-17T13:48:03.726Z,98657.06
2023-04-17T13:52:06.590Z,98661.38
2023-04-17T13:56:08.852Z,98656.59
2023-04-17T14:00:11.489Z,98655.75
2023-04-17T14:04:13.789Z,98649.13
2023-04-17T14:08:16.244Z,98637.44
2023-04-17T14:12:20.878Z,98636.81
2023-04-17T14:16:23.457Z,98635.84
2023-04-17T14:20:25.626Z,98633.25
2023-04-17T14:24:27.719Z,98631.44
2023-04-17T14:28:29.774Z,98628.69
2023-04-17T14:32:31.913Z,98621.22
2023-04-17T14:36:35.269Z,98617.88
2023-04-17T14:40:37.812Z,98618.63
2023-04-17T14:44:39.896Z,98609.97
2023-04-17T14:48:54.987Z,98626.59
2023-04-17T14:52:57.950Z,98616.59
2023-04-17T14:56:59.985Z,98615.81
2023-04-17T15:01:02.156Z,98613.50
2023-04-17T15:05:05.498Z,98605.34
2023-04-17T15:09:07.549Z,98605.16
2023-04-17T15:13:09.539Z,98607.91
2023-04-17T15:17:11.540Z,98603.44
2023-04-17T15:21:16.100Z,98605.53
2023-04-17T15:25:20.086Z,98606.44
2023-04-17T15:29:22.113Z,98600.41
2023-04-17T15:33:24.151Z,98600.41
2023-04-17T15:37:26.215Z,98596.97
2023-04-17T15:41:28.264Z,98595.34
2023-04-17T15:45:30.299Z,98597.19
2023-04-17T15:49:32.716Z,98595.81
2023-04-17T15:53:35.225Z,98586.25
2023-04-17T15:57:38.209Z,98589.88
2023-04-17T16:01:40.372Z,98587.47
2023-04-17T16:05:42.404Z,98594.13
2023-04-17T16:09:45.831Z,98599.66
2023-04-17T16:13:47.861Z,98592.78
2023-04-17T16:17:49.976Z,98597.44
2023-04-17T16:21:52.068Z,98603.81
2023-04-17T16:25:55.239Z,98601.31
2023-04-17T16:29:57.290Z,98600.59
2023-04-17T16:33:59.309Z,98593.19
2023-04-17T16:38:01.540Z,98601.16
2023-04-17T16:42:03.707Z,98596.94
2023-04-17T16:46:18.321Z,98598.88
2023-04-17T16:50:25.046Z,98598.13
2023-04-17T16:54:27.630Z,98602.69
2023-04-17T16:58:29.692Z,98599.41
2023-04-17T17:02:31.914Z,98607.41
2023-04-17T17:06:34.015Z,98605.69
2023-04-17T17:10:36.068Z,98604.13
2023-04-17T17:14:38.108Z,98607.91
2023-04-17T17:18:40.241Z,98618.53
2023-04-17T17:22:42.313Z,98617.06
2023-04-17T17:26:44.318Z,98610.28
2023-04-17T17:30:46.437Z,98614.69
2023-04-17T17:34:48.526Z,98608.28
2023-04-17T17:38:55.436Z,98621.16
2023-04-17T17:42:57.769Z,98610.88
2023-04-17T17:46:59.662Z,98615.78
2023-04-17T17:51:01.719Z,98622.28
2023-04-17T17:55:04.060Z,98622.59
2023-04-17T17:59:06.114Z,98628.88
2023-04-17T18:03:08.267Z,98626.41
2023-04-17T18:07:10.453Z,98616.75
2023-04-17T18:11:13.735Z,98627.31
2023-04-17T18:15:15.827Z,98625.69
2023-04-17T18:19:18.068Z,98623.19
2023-04-17T18:23:20.203Z,98630.38
2023-04-17T18:27:22.745Z,98637.44
2023-04-17T18:31:26.028Z,98640.22
2023-04-17T18:35:28.172Z,98646.72
2023-04-17T18:39:30.854Z,98647.84
2023-04-17T18:43:32.885Z,98641.00
2023-04-17T18:47:34.991Z,98650.47
2023-04-17T18:51:37.681Z,98651.34
2023-04-17T18:55:40.085Z,98657.31
2023-04-17T18:59:43.231Z,98653.03
2023-04-17T19:03:46.174Z,98652.09
2023-04-17T19:07:48.623Z,98660.66
2023-04-17T19:11:51.203Z,98658.94
2023-04-17T19:15:53.263Z,98660.84
2023-04-17T19:19:55.391Z,98661.97
2023-04-17T19:23:57.394Z,98666.38
2023-04-17T19:27:59.453Z,98651.13
2023-04-17T19:32:01.870Z,98656.75
2023-04-17T19:36:04.128Z,98664.13
2023-04-17T19:40:21.498Z,98652.38
2023-04-17T19:44:28.041Z,98658.94
2023-04-17T19:48:30.185Z,98662.75
2023-04-17T19:52:32.251Z,98661.28
2023-04-17T19:56:34.327Z,98661.50
2023-04-17T20:00:36.347Z,98656.56
2023-04-17T20:04:38.426Z,98658.72
2023-04-17T20:08:40.836Z,98665.13
2023-04-17T20:12:42.879Z,98675.75
2023-04-17T20:16:46.380Z,98663.69
2023-04-17T20:20:48.634Z,98668.06
2023-04-17T20:24:50.774Z,98663.81
2023-04-17T20:28:54.624Z,98669.06
2023-04-17T20:32:56.863Z,98662.06
2023-04-17T20:36:58.963Z,98664.78
2023-04-17T20:41:00.968Z,98665.78
2023-04-17T20:45:03.805Z,98665.84
2023-04-17T20:49:05.947Z,98660.63
2023-04-17T20:53:08.027Z,98658.81
2023-04-17T20:57:10.283Z,98663.16
2023-04-17T21:01:12.499Z,98652.03
2023-04-17T21:05:14.578Z,98652.38
2023-04-17T21:09:16.860Z,98666.44
2023-04-17T21:13:18.956Z,98661.31
2023-04-17T21:17:21.005Z,98658.19
2023-04-17T21:21:23.070Z,98655.72
2023-04-17T21:25:25.216Z,98654.97
2023-04-17T21:29:28.475Z,98656.69
2023-04-17T21:33:30.488Z,98653.47
2023-04-17T21:37:32.547Z,98653.41
2023-04-17T21:41:34.608Z,98652.53
2023-04-17T21:45:36.720Z,98664.13
2023-04-17T21:49:38.818Z,98657.41
2023-04-17T21:53:43.816Z,98659.25
2023-04-17T21:57:46.015Z,98655.91
2023-04-17T22:01:48.127Z,98659.38
2023-04-17T22:05:52.679Z,98657.09
2023-04-17T22:09:54.834Z,98660.84
2023-04-17T22:13:56.925Z,98657.31
2023-04-17T22:17:58.989Z,98652.81
2023-04-17T22:22:01.052Z,98656.31
2023-04-17T22:26:03.297Z,98659.88
2023-04-17T22:30:06.069Z,98653.91
2023-04-17T22:34:08.088Z,98660.19
2023-04-17T22:38:10.093Z,98665.59
2023-04-17T22:42:12.190Z,98667.34
2023-04-17T22:46:14.228Z,98658.81
2023-04-17T22:50:17.640Z,98666.03
2023-04-17T22:54:23.085Z,98669.22
2023-04-17T22:58:25.405Z,98669.53
2023-04-17T23:02:27.478Z,98672.38
2023-04-17T23:06:29.581Z,98669.06
2023-04-17T23:10:31.594Z,98673.31
2023-04-17T23:14:33.851Z,98670.50
2023-04-17T23:18:37.216Z,98659.97
2023-04-17T23:22:39.271Z,98658.31
2023-04-17T23:26:41.864Z,98660.16
2023-04-17T23:30:43.869Z,98661.16
2023-04-17T23:34:45.870Z,98654.53
2023-04-17T23:38:47.885Z,98659.25
2023-04-17T23:42:49.885Z,98656.84
2023-04-17T23:46:51.938Z,98657.56
2023-04-17T23:50:54.266Z,98660.03
2023-04-17T23:54:56.661Z,98652.16
2023-04-17T23:58:58.644Z,98646.94
